Time;durP1;ratioP1;P1;durP2;ratioP2;P2;SDS_P1;SDS_P2;PMS_P1;PMS_P2;Temp;Humidity;BMP_temperature;BMP_pressure;BME280_temperature;BME280_humidity;BME280_pressure;Samples;Min_cycle;Max_cycle;Signal;HPM_P1;HPM_P2
2023/05/14 00:00:52;;;;;;;8.52;5.82;;;;;;;10.14;100.00;98607.91;2593321;28;20944;-88
2023/05/14 00:02:17;;;;;;;8.73;5.43;;;;;;;10.06;100.00;98617.69;2592228;28;20044;-88
2023/05/14 00:03:33;;;;;;;7.80;5.43;;;;;;;10.09;100.00;98609.78;2592042;28;20050;-88
2023/05/14 00:04:49;;;;;;;9.30;5.55;;;;;;;10.04;100.00;98610.72;2593519;28;20042;-88
2023/05/14 00:06:04;;;;;;;6.97;5.07;;;;;;;9.99;100.00;98612.59;2592160;28;20495;-88
2023/05/14 00:07:20;;;;;;;8.93;5.70;;;;;;;9.98;100.00;98613.50;2592983;28;20509;-87
2023/05/14 00:08:35;;;;;;;7.22;5.32;;;;;;;10.02;100.00;98611.69;2593141;28;20052;-88
2023/05/14 00:09:51;;;;;;;9.23;5.32;;;;;;;9.97;100.00;98603.94;2594277;28;20049;-87
2023/05/14 00:11:07;;;;;;;8.43;5.72;;;;;;;10.03;100.00;98606.41;2593348;28;20069;-88
2023/05/14 00:12:23;;;;;;;8.27;5.03;;;;;;;10.03;100.00;98601.16;2593963;28;20049;-87
2023/05/14 00:13:39;;;;;;;9.27;5.22;;;;;;;9.97;100.00;98601.31;2601319;28;20071;-87
2023/05/14 00:14:54;;;;;;;7.75;5.00;;;;;;;9.92;100.00;98597.09;2598568;28;20135;-87
2023/05/14 00:16:10;;;;;;;7.10;5.03;;;;;;;9.82;100.00;98593.81;2593771;28;20615;-88
2023/05/14 00:17:26;;;;;;;7.20;5.20;;;;;;;9.88;100.00;98591.94;2593035;28;20053;-88
2023/05/14 00:18:42;;;;;;;10.25;5.32;;;;;;;9.86;100.00;98595.47;2594576;28;20050;-88
2023/05/14 00:19:58;;;;;;;10.75;5.90;;;;;;;9.81;100.00;98592.94;2592999;28;20046;-88
2023/05/14 00:21:13;;;;;;;8.95;5.13;;;;;;;9.87;100.00;98592.84;2592520;28;20042;-88
2023/05/14 00:22:29;;;;;;;11.43;5.78;;;;;;;9.83;100.00;98588.53;2592577;28;20100;-88
2023/05/14 00:23:45;;;;;;;8.27;5.72;;;;;;;9.77;100.00;98587.81;2592334;28;20049;-89
2023/05/14 00:25:00;;;;;;;10.65;6.13;;;;;;;9.77;100.00;98586.06;2593764;28;21022;-88
2023/05/14 00:26:16;;;;;;;7.80;5.32;;;;;;;9.64;100.00;98593.34;2592293;28;20490;-88
2023/05/14 00:27:31;;;;;;;9.75;5.63;;;;;;;9.50;100.00;98593.63;2593145;28;20053;-88
2023/05/14 00:28:48;;;;;;;8.05;5.47;;;;;;;9.75;100.00;98582.66;2592037;28;20097;-88
2023/05/14 00:30:05;;;;;;;8.45;5.60;;;;;;;9.82;100.00;98586.81;2593011;28;20504;-88
2023/05/14 00:31:21;;;;;;;10.05;6.20;;;;;;;9.99;100.00;98586.44;2593497;28;20132;-87
2023/05/14 00:32:36;;;;;;;9.45;5.82;;;;;;;9.94;100.00;98585.69;2592133;28;20048;-87
2023/05/14 00:33:52;;;;;;;7.80;5.45;;;;;;;9.85;100.00;98586.78;2593303;28;20393;-87
2023/05/14 00:35:08;;;;;;;10.18;6.45;;;;;;;9.87;100.00;98586.72;2593269;28;20053;-89
2023/05/14 00:36:24;;;;;;;8.48;5.72;;;;;;;9.79;100.00;98584.28;2593397;28;20053;-88
2023/05/14 00:37:39;;;;;;;9.20;6.35;;;;;;;9.89;100.00;98590.16;2591921;28;20064;-88
2023/05/14 00:38:55;;;;;;;8.00;5.57;;;;;;;10.10;100.00;98593.19;2588231;28;20053;-89
2023/05/14 00:40:11;;;;;;;11.15;6.43;;;;;;;10.10;100.00;98587.97;2592091;28;20056;-87
2023/05/14 00:41:27;;;;;;;8.98;5.93;;;;;;;10.08;100.00;98585.38;2592779;28;20050;-88
2023/05/14 00:42:43;;;;;;;9.60;5.90;;;;;;;10.17;100.00;98589.50;2594259;28;20080;-88
2023/05/14 00:43:58;;;;;;;10.35;5.80;;;;;;;10.22;100.00;98587.66;2593486;28;20052;-88
2023/05/14 00:45:14;;;;;;;10.40;6.88;;;;;;;10.34;100.00;98590.84;2592794;28;20076;-88
2023/05/14 00:46:30;;;;;;;9.77;6.22;;;;;;;10.39;100.00;98587.22;2593148;28;20515;-88
2023/05/14 00:47:46;;;;;;;7.75;5.85;;;;;;;10.29;100.00;98585.75;2591757;28;20596;-87
2023/05/14 00:49:02;;;;;;;9.30;6.22;;;;;;;10.41;100.00;98588.09;2593094;28;20137;-88
2023/05/14 00:50:18;;;;;;;11.63;6.10;;;;;;;10.39;100.00;98589.84;2590335;28;20065;-88
2023/05/14 00:51:34;;;;;;;8.63;5.78;;;;;;;10.39;100.00;98591.63;2592936;28;20163;-88
2023/05/14 00:52:49;;;;;;;7.43;5.45;;;;;;;10.47;100.00;98592.31;2588353;28;20042;-88
2023/05/14 00:54:06;;;;;;;8.27;5.80;;;;;;;10.49;100.00;98590.53;2593559;28;20057;-87
2023/05/14 00:55:21;;;;;;;6.95;5.22;;;;;;;10.47;100.00;98589.69;2592863;28;20075;-88
2023/05/14 00:56:37;;;;;;;8.02;5.38;;;;;;;10.51;100.00;98586.13;2594726;28;20049;-88
2023/05/14 00:57:54;;;;;;;6.70;5.07;;;;;;;10.36;100.00;98583.84;2588205;28;20052;-88
2023/05/14 00:59:09;;;;;;;7.40;5.55;;;;;;;10.40;100.00;98577.63;2592528;28;20433;-88
2023/05/14 01:00:25;;;;;;;7.90;5.03;;;;;;;10.39;100.00;98576.75;2594421;28;20049;-88
2023/05/14 01:01:41;;;;;;;8.68;5.28;;;;;;;10.50;100.00;98579.16;2594473;28;20053;-88
2023/05/14 01:03:00;;;;;;;8.18;6.10;;;;;;;10.49;100.00;98574.81;2593059;28;20042;-88
2023/05/14 01:04:15;;;;;;;8.40;5.38;;;;;;;10.51;100.00;98580.00;2594786;28;20481;-88
2023/05/14 01:05:57;;;;;;;8.93;5.82;;;;;;;10.40;100.00;98578.47;2595014;28;20107;-88
2023/05/14 01:07:29;;;;;;;7.78;5.47;;;;;;;10.21;100.00;98577.22;2593442;28;20100;-88
2023/05/14 01:09:02;;;;;;;9.55;5.82;;;;;;;10.36;100.00;98578.63;2593435;28;20081;-88
2023/05/14 01:10:50;;;;;;;8.73;5.20;;;;;;;10.57;100.00;98575.47;2591570;28;20056;-88
2023/05/14 01:12:27;;;;;;;8.45;5.10;;;;;;;10.57;100.00;98583.31;2591071;28;20060;-88
2023/05/14 01:14:20;;;;;;;9.88;5.85;;;;;;;10.59;100.00;98583.28;2592896;28;20150;-88
2023/05/14 01:15:38;;;;;;;7.78;5.68;;;;;;;10.56;100.00;98583.38;2592171;28;20576;-88
2023/05/14 01:16:57;;;;;;;8.93;6.45;;;;;;;10.23;100.00;98586.75;2591694;28;20508;-88
2023/05/14 01:18:17;;;;;;;8.85;6.05;;;;;;;10.14;100.00;98586.97;2592191;28;20060;-88
2023/05/14 01:19:43;;;;;;;8.43;6.13;;;;;;;10.25;100.00;98586.72;2594566;28;20535;-88
2023/05/14 01:20:58;;;;;;;9.32;6.13;;;;;;;10.38;100.00;98582.06;2592292;28;20049;-88
2023/05/14 01:22:15;;;;;;;9.60;6.75;;;;;;;10.47;100.00;98581.84;2591791;28;20099;-90
2023/05/14 01:23:30;;;;;;;8.68;6.47;;;;;;;10.52;100.00;98582.59;2588000;28;20061;-88
2023/05/14 01:24:46;;;;;;;8.30;6.15;;;;;;;10.48;100.00;98580.97;2590941;28;20046;-89
2023/05/14 01:26:02;;;;;;;10.18;6.68;;;;;;;10.18;100.00;98578.16;2593233;28;20127;-88
2023/05/14 01:27:22;;;;;;;9.27;6.18;;;;;;;10.44;100.00;98574.06;2594447;28;20053;-88
2023/05/14 01:28:38;;;;;;;10.02;6.70;;;;;;;10.51;100.00;98573.03;2592997;28;20748;-88
2023/05/14 01:30:14;;;;;;;11.35;6.68;;;;;;;10.36;100.00;98569.00;2594684;28;20485;-87
2023/05/14 01:31:32;;;;;;;11.18;6.55;;;;;;;10.24;100.00;98571.91;2592325;28;20130;-87
2023/05/14 01:32:52;;;;;;;10.32;6.35;;;;;;;10.31;100.00;98566.47;2593102;28;20053;-88
2023/05/14 01:34:10;;;;;;;9.52;6.57;;;;;;;9.76;100.00;98566.06;2591127;28;20893;-89
2023/05/14 01:35:28;;;;;;;11.85;6.93;;;;;;;10.10;100.00;98561.78;2591440;28;20057;-88
2023/05/14 01:36:44;;;;;;;13.30;6.40;;;;;;;10.09;100.00;98565.31;2593082;28;20193;-88
2023/05/14 01:38:01;;;;;;;11.68;7.28;;;;;;;10.00;100.00;98576.84;2593245;28;20477;-88
2023/05/14 01:39:18;;;;;;;12.95;6.55;;;;;;;10.18;100.00;98563.31;2593607;28;20073;-88
2023/05/14 01:40:35;;;;;;;10.95;7.60;;;;;;;10.25;100.00;98564.03;2593575;28;21039;-87
2023/05/14 01:41:52;;;;;;;11.85;7.07;;;;;;;10.39;100.00;98562.84;2593043;28;20119;-88
2023/05/14 01:43:08;;;;;;;10.63;6.72;;;;;;;10.14;100.00;98553.84;2593175;28;20519;-88
2023/05/14 01:44:23;;;;;;;12.55;7.07;;;;;;;10.11;100.00;98556.50;2592740;28;20045;-88
2023/05/14 01:45:39;;;;;;;12.07;6.90;;;;;;;9.98;100.00;98550.72;2593523;28;20107;-88
2023/05/14 01:46:55;;;;;;;12.05;7.25;;;;;;;9.92;100.00;98553.50;2593602;28;20056;-87
2023/05/14 01:48:10;;;;;;;10.35;6.65;;;;;;;9.69;100.00;98554.00;2595359;28;20045;-87
2023/05/14 01:49:26;;;;;;;9.52;6.50;;;;;;;9.43;100.00;98558.06;2606382;28;20096;-87
2023/05/14 01:50:41;;;;;;;9.75;6.72;;;;;;;9.40;100.00;98553.78;2600356;28;20054;-87
2023/05/14 01:51:57;;;;;;;8.75;6.72;;;;;;;9.80;100.00;98553.78;2603451;28;20704;-87
2023/05/14 01:53:12;;;;;;;12.05;7.72;;;;;;;9.86;100.00;98551.88;2601339;28;20045;-88
2023/05/14 01:54:28;;;;;;;12.63;7.57;;;;;;;9.68;100.00;98555.78;2593606;28;20061;-86
2023/05/14 01:55:44;;;;;;;13.90;7.13;;;;;;;9.58;100.00;98555.13;2595991;28;20049;-87
2023/05/14 01:56:59;;;;;;;11.50;7.55;;;;;;;9.76;100.00;98558.22;2593792;28;20504;-86
2023/05/14 01:58:15;;;;;;;13.10;7.05;;;;;;;9.76;100.00;98555.59;2595527;28;20080;-86
2023/05/14 01:59:30;;;;;;;12.02;7.50;;;;;;;9.65;100.00;98555.84;2594894;28;20045;-86
2023/05/14 02:00:46;;;;;;;10.93;6.70;;;;;;;9.51;100.00;98555.28;2596590;28;20041;-87
2023/05/14 02:02:01;;;;;;;12.60;7.47;;;;;;;9.37;100.00;98552.97;2594487;28;20124;-87
2023/05/14 02:03:17;;;;;;;11.27;7.28;;;;;;;9.70;100.00;98553.09;2593651;28;20065;-87
2023/05/14 02:04:32;;;;;;;9.13;6.55;;;;;;;9.51;100.00;98545.69;2596672;28;20053;-87
2023/05/14 02:05:48;;;;;;;9.15;6.40;;;;;;;9.54;100.00;98550.84;2594531;28;20537;-87
2023/05/14 02:07:04;;;;;;;11.30;6.45;;;;;;;9.54;100.00;98548.22;2594369;28;20049;-87
2023/05/14 02:08:20;;;;;;;10.90;6.80;;;;;;;9.67;100.00;98545.34;2602962;28;20077;-87
2023/05/14 02:09:35;;;;;;;8.93;6.25;;;;;;;9.85;100.00;98544.06;2598926;28;20406;-87
2023/05/14 02:10:51;;;;;;;8.32;6.10;;;;;;;9.81;100.00;98545.03;2596495;28;20056;-87
2023/05/14 02:12:08;;;;;;;10.13;6.40;;;;;;;9.92;100.00;98548.28;2596399;28;20493;-87
2023/05/14 02:13:24;;;;;;;8.93;6.35;;;;;;;9.98;100.00;98542.88;2595108;28;20079;-87
2023/05/14 02:14:39;;;;;;;8.57;6.13;;;;;;;9.91;100.00;98543.91;2593392;28;20050;-87
2023/05/14 02:15:55;;;;;;;9.48;6.47;;;;;;;9.87;100.00;98543.13;2593308;28;20513;-87
2023/05/14 02:17:14;;;;;;;10.93;6.60;;;;;;;10.01;100.00;98540.19;2593613;28;20083;-87
2023/05/14 02:18:30;;;;;;;9.27;6.65;;;;;;;10.12;100.00;98544.31;2595731;28;20045;-87
2023/05/14 02:19:45;;;;;;;13.40;6.95;;;;;;;9.91;100.00;98538.69;2593565;28;20050;-87
2023/05/14 02:21:01;;;;;;;8.95;6.32;;;;;;;9.85;100.00;98538.84;2595154;28;20081;-87
2023/05/14 02:22:16;;;;;;;8.88;6.20;;;;;;;10.10;100.00;98540.88;2596421;28;20049;-87
2023/05/14 02:23:32;;;;;;;9.27;6.05;;;;;;;10.19;100.00;98543.25;2596432;28;20054;-87
2023/05/14 02:24:48;;;;;;;10.07;5.93;;;;;;;10.25;100.00;98537.00;2595292;28;20056;-87
2023/05/14 02:26:04;;;;;;;8.48;5.72;;;;;;;10.28;100.00;98547.41;2594913;28;20049;-87
2023/05/14 02:27:20;;;;;;;8.57;5.88;;;;;;;10.32;100.00;98539.41;2594259;28;20052;-87
2023/05/14 02:28:36;;;;;;;8.95;5.93;;;;;;;10.35;100.00;98537.66;2594482;28;20116;-87
2023/05/14 02:29:51;;;;;;;10.13;6.55;;;;;;;10.40;100.00;98539.22;2595596;28;20560;-87
2023/05/14 02:31:07;;;;;;;10.15;6.40;;;;;;;10.47;100.00;98532.09;2594493;28;20801;-87
2023/05/14 02:32:23;;;;;;;10.32;6.22;;;;;;;10.52;100.00;98537.22;2593546;28;20053;-87
2023/05/14 02:33:38;;;;;;;9.05;6.03;;;;;;;10.52;100.00;98539.84;2594933;28;20059;-86
2023/05/14 02:34:54;;;;;;;9.43;6.22;;;;;;;10.49;100.00;98526.84;2595143;28;20050;-87
2023/05/14 02:36:10;;;;;;;10.45;6.55;;;;;;;10.47;100.00;98539.94;2592991;28;20438;-87
2023/05/14 02:37:25;;;;;;;9.48;6.25;;;;;;;10.40;100.00;98533.97;2594886;28;20053;-87
2023/05/14 02:38:41;;;;;;;8.18;5.75;;;;;;;10.43;100.00;98539.19;2592432;28;20042;-87
2023/05/14 02:39:57;;;;;;;9.60;6.75;;;;;;;10.28;100.00;98536.94;2595791;28;21107;-88
2023/05/14 02:41:12;;;;;;;9.32;6.05;;;;;;;10.46;100.00;98535.63;2593395;28;20049;-88
2023/05/14 02:42:27;;;;;;;12.40;6.32;;;;;;;10.45;100.00;98537.38;2594168;28;20104;-87
2023/05/14 02:43:43;;;;;;;9.50;5.75;;;;;;;10.50;100.00;98536.41;2593920;28;20053;-87
2023/05/14 02:44:59;;;;;;;11.30;6.35;;;;;;;10.51;100.00;98540.75;2592953;28;20050;-87
2023/05/14 02:46:14;;;;;;;11.25;7.18;;;;;;;10.41;100.00;98535.75;2593080;28;20052;-87
2023/05/14 02:47:30;;;;;;;10.20;6.40;;;;;;;10.43;100.00;98528.72;2594940;28;20061;-87
2023/05/14 02:48:45;;;;;;;9.88;6.72;;;;;;;10.47;100.00;98534.72;2594839;28;20072;-87
2023/05/14 02:50:03;;;;;;;8.73;6.13;;;;;;;10.53;100.00;98537.19;2594289;28;20080;-87
2023/05/14 02:51:20;;;;;;;11.95;6.97;;;;;;;10.22;100.00;98534.47;2594236;28;20077;-87
2023/05/14 02:52:35;;;;;;;14.43;7.28;;;;;;;10.26;100.00;98534.34;2592520;28;20087;-87
2023/05/14 02:53:51;;;;;;;14.80;8.02;;;;;;;10.27;100.00;98538.69;2595018;28;20092;-87
2023/05/14 02:55:07;;;;;;;11.60;7.07;;;;;;;9.89;100.00;98537.84;2596021;28;20061;-87
2023/05/14 02:56:22;;;;;;;13.38;6.80;;;;;;;10.05;100.00;98538.34;2593206;28;20611;-87
2023/05/14 02:57:38;;;;;;;10.43;6.35;;;;;;;10.18;100.00;98534.53;2603129;28;21007;-87
2023/05/14 02:58:54;;;;;;;9.35;6.22;;;;;;;10.32;100.00;98535.97;2601295;28;20057;-88
2023/05/14 03:00:10;;;;;;;8.90;6.57;;;;;;;10.21;100.00;98533.63;2593122;28;20076;-87
2023/05/14 03:01:26;;;;;;;9.60;6.28;;;;;;;10.38;100.00;98541.03;2594781;28;20081;-87
2023/05/14 03:02:42;;;;;;;10.98;6.68;;;;;;;10.46;100.00;98533.00;2594285;28;20062;-87
2023/05/14 03:03:57;;;;;;;8.38;6.28;;;;;;;10.38;100.00;98529.72;2593767;28;20116;-87
2023/05/14 03:05:13;;;;;;;8.75;5.53;;;;;;;10.29;100.00;98525.56;2594798;28;20045;-88
2023/05/14 03:06:30;;;;;;;10.80;6.38;;;;;;;10.46;100.00;98527.75;2593702;28;20335;-87
2023/05/14 03:07:45;;;;;;;8.02;5.55;;;;;;;10.54;100.00;98530.19;2593710;28;20137;-87
2023/05/14 03:09:01;;;;;;;10.60;5.70;;;;;;;10.47;100.00;98528.63;2593952;28;20056;-87
2023/05/14 03:10:17;;;;;;;9.38;6.30;;;;;;;10.31;100.00;98526.38;2594145;28;20081;-87
2023/05/14 03:11:32;;;;;;;8.35;6.03;;;;;;;10.39;100.00;98520.97;2592949;28;20136;-87
2023/05/14 03:12:48;;;;;;;12.23;6.35;;;;;;;10.39;100.00;98523.56;2592923;28;20477;-87
2023/05/14 03:14:03;;;;;;;11.95;6.15;;;;;;;10.28;100.00;98524.69;2595502;28;20320;-87
2023/05/14 03:15:19;;;;;;;9.80;6.47;;;;;;;10.40;100.00;98526.13;2591857;28;20056;-88
2023/05/14 03:16:34;;;;;;;8.85;5.93;;;;;;;10.34;100.00;98520.19;2592408;28;20052;-87
2023/05/14 03:17:50;;;;;;;8.32;5.53;;;;;;;10.35;100.00;98514.09;2594557;28;20080;-87
2023/05/14 03:19:06;;;;;;;7.72;5.50;;;;;;;10.48;100.00;98517.25;2592907;28;20046;-87
2023/05/14 03:20:25;;;;;;;9.60;6.40;;;;;;;10.49;100.00;98516.38;2594207;28;20056;-87
2023/05/14 03:21:41;;;;;;;10.73;6.57;;;;;;;10.49;100.00;98514.63;2593779;28;20052;-88
2023/05/14 03:22:57;;;;;;;9.35;5.82;;;;;;;10.43;100.00;98520.88;2592521;28;20050;-87
2023/05/14 03:24:12;;;;;;;9.75;5.68;;;;;;;10.41;100.00;98516.56;2599232;28;20049;-87
2023/05/14 03:25:28;;;;;;;9.25;6.00;;;;;;;10.45;100.00;98519.06;2598585;28;20085;-87
2023/05/14 03:26:44;;;;;;;8.85;5.78;;;;;;;10.46;100.00;98519.91;2592588;28;20052;-87
2023/05/14 03:27:59;;;;;;;8.85;5.85;;;;;;;10.55;100.00;98521.44;2593654;28;20073;-87
2023/05/14 03:29:16;;;;;;;9.80;5.80;;;;;;;10.43;100.00;98523.50;2594673;28;20049;-87
2023/05/14 03:30:32;;;;;;;9.43;6.20;;;;;;;10.36;100.00;98518.44;2593669;28;21065;-87
2023/05/14 03:31:49;;;;;;;10.00;6.22;;;;;;;10.39;100.00;98520.97;2595533;28;20072;-87
2023/05/14 03:33:05;;;;;;;9.40;6.25;;;;;;;10.42;100.00;98515.66;2594602;28;20729;-87
2023/05/14 03:34:21;;;;;;;8.63;6.07;;;;;;;10.65;100.00;98517.66;2591629;28;20049;-87
2023/05/14 03:35:36;;;;;;;8.52;5.95;;;;;;;10.51;100.00;98520.66;2593624;28;20050;-87
2023/05/14 03:36:52;;;;;;;8.38;6.40;;;;;;;10.66;100.00;98515.91;2594643;28;20045;-87
2023/05/14 03:38:07;;;;;;;8.40;6.18;;;;;;;10.83;100.00;98511.06;2593650;28;20049;-87
2023/05/14 03:39:23;;;;;;;9.60;6.18;;;;;;;10.58;100.00;98516.97;2594574;28;20144;-87
2023/05/14 03:40:39;;;;;;;7.60;5.45;;;;;;;10.53;100.00;98515.38;2593400;28;20046;-87
2023/05/14 03:41:56;;;;;;;8.93;6.28;;;;;;;10.79;100.00;98516.44;2603796;28;20573;-87
2023/05/14 03:43:11;;;;;;;9.75;5.70;;;;;;;10.66;100.00;98521.16;2601177;28;20069;-86
2023/05/14 03:44:27;;;;;;;10.88;6.13;;;;;;;10.69;100.00;98505.34;2592995;28;20659;-87
2023/05/14 03:45:43;;;;;;;7.97;5.70;;;;;;;10.49;100.00;98514.63;2593936;28;20058;-87
2023/05/14 03:46:58;;;;;;;10.45;6.72;;;;;;;10.42;100.00;98516.53;2594962;28;20052;-87
2023/05/14 03:48:14;;;;;;;8.75;6.38;;;;;;;10.32;100.00;98521.09;2594090;28;20057;-87
2023/05/14 03:49:29;;;;;;;9.02;5.65;;;;;;;10.30;100.00;98522.06;2594312;28;20053;-87
2023/05/14 03:50:45;;;;;;;9.30;6.22;;;;;;;10.28;100.00;98519.47;2594974;28;20060;-87
2023/05/14 03:52:01;;;;;;;9.68;6.40;;;;;;;10.36;100.00;98519.25;2592892;28;20061;-87
2023/05/14 03:53:16;;;;;;;9.85;6.47;;;;;;;10.56;100.00;98523.16;2593957;28;20054;-87
2023/05/14 03:54:31;;;;;;;8.13;6.45;;;;;;;10.57;100.00;98528.34;2592782;28;20049;-87
2023/05/14 03:55:47;;;;;;;9.70;5.95;;;;;;;10.81;100.00;98519.88;2594115;28;20106;-87
2023/05/14 03:57:03;;;;;;;8.50;6.22;;;;;;;10.60;100.00;98520.41;2594408;28;20531;-87
2023/05/14 03:58:19;;;;;;;8.95;6.05;;;;;;;10.78;100.00;98512.97;2594017;28;20057;-87
2023/05/14 03:59:34;;;;;;;9.55;6.75;;;;;;;10.85;100.00;98516.28;2592463;28;20547;-87
2023/05/14 04:00:50;;;;;;;8.20;6.10;;;;;;;10.80;100.00;98516.41;2593817;28;20091;-87
2023/05/14 04:02:06;;;;;;;11.60;6.40;;;;;;;10.77;100.00;98513.88;2594704;28;20225;-87
2023/05/14 04:03:22;;;;;;;8.38;5.63;;;;;;;10.86;100.00;98513.59;2593227;28;20640;-87
2023/05/14 04:04:37;;;;;;;9.93;6.38;;;;;;;10.92;100.00;98509.94;2593070;28;20049;-87
2023/05/14 04:05:53;;;;;;;8.85;6.13;;;;;;;10.79;100.00;98501.59;2594179;28;20049;-87
2023/05/14 04:07:08;;;;;;;8.05;5.55;;;;;;;10.90;100.00;98496.03;2592713;28;20053;-87
2023/05/14 04:08:24;;;;;;;10.30;6.28;;;;;;;10.88;100.00;98498.69;2592070;28;20057;-87
2023/05/14 04:09:39;;;;;;;8.63;6.18;;;;;;;11.02;100.00;98500.06;2592397;28;20049;-87
2023/05/14 04:10:55;;;;;;;8.52;5.97;;;;;;;10.88;100.00;98500.47;2594869;28;20489;-87
2023/05/14 04:12:11;;;;;;;8.60;6.22;;;;;;;10.98;100.00;98506.28;2595187;28;20042;-87
2023/05/14 04:13:26;;;;;;;9.20;5.53;;;;;;;10.72;100.00;98502.66;2594939;28;20049;-87
2023/05/14 04:14:42;;;;;;;10.25;6.15;;;;;;;10.84;100.00;98496.22;2594710;28;20053;-87
2023/05/14 04:15:57;;;;;;;9.68;6.70;;;;;;;10.68;100.00;98501.03;2593583;28;20537;-88
2023/05/14 04:17:13;;;;;;;8.38;5.80;;;;;;;10.65;100.00;98495.88;2595639;28;20050;-87
2023/05/14 04:18:29;;;;;;;9.60;6.60;;;;;;;10.40;100.00;98510.44;2588683;28;20057;-88
2023/05/14 04:19:45;;;;;;;9.70;6.60;;;;;;;10.64;100.00;98508.09;2594290;28;20085;-87
2023/05/14 04:21:01;;;;;;;11.82;6.57;;;;;;;10.88;100.00;98506.56;2594491;28;20456;-87
2023/05/14 04:22:17;;;;;;;12.00;6.72;;;;;;;10.95;100.00;98503.78;2593591;28;20615;-87
2023/05/14 04:23:32;;;;;;;10.20;6.72;;;;;;;11.03;100.00;98504.41;2593218;28;20053;-87
2023/05/14 04:24:48;;;;;;;9.48;6.40;;;;;;;11.14;100.00;98504.94;2593012;28;20050;-87
2023/05/14 04:26:04;;;;;;;9.48;6.18;;;;;;;11.07;100.00;98507.78;2591877;28;20053;-89
2023/05/14 04:27:20;;;;;;;9.57;6.63;;;;;;;11.06;100.00;98501.72;2592745;28;20050;-87
2023/05/14 04:28:36;;;;;;;10.02;7.10;;;;;;;11.07;100.00;98500.81;2592176;28;20124;-87
2023/05/14 04:29:51;;;;;;;11.00;6.72;;;;;;;11.04;100.00;98500.91;2594851;28;20056;-87
2023/05/14 04:31:07;;;;;;;10.23;7.15;;;;;;;11.04;100.00;98502.66;2592689;28;20060;-87
2023/05/14 04:32:23;;;;;;;9.30;6.80;;;;;;;11.12;100.00;98498.91;2602664;28;20132;-87
2023/05/14 04:33:39;;;;;;;10.75;7.13;;;;;;;11.15;100.00;98498.78;2598132;28;20057;-87
2023/05/14 04:34:55;;;;;;;9.60;6.88;;;;;;;11.11;100.00;98497.19;2592975;28;20426;-87
2023/05/14 04:36:10;;;;;;;10.65;7.00;;;;;;;11.18;100.00;98490.00;2592254;28;20061;-87
2023/05/14 04:37:26;;;;;;;8.93;6.72;;;;;;;11.30;100.00;98500.13;2592085;28;20493;-87
2023/05/14 04:38:41;;;;;;;10.30;7.13;;;;;;;11.19;100.00;98490.88;2593075;28;20048;-87
2023/05/14 04:39:57;;;;;;;11.75;6.80;;;;;;;11.30;100.00;98494.00;2592812;28;20304;-87
2023/05/14 04:41:13;;;;;;;10.85;6.80;;;;;;;11.47;100.00;98495.28;2594022;28;20049;-87
2023/05/14 04:42:28;;;;;;;13.27;7.30;;;;;;;11.31;100.00;98487.84;2592872;28;20107;-87
2023/05/14 04:43:43;;;;;;;10.00;7.18;;;;;;;11.38;100.00;98492.03;2593664;28;20049;-87
2023/05/14 04:44:59;;;;;;;11.82;7.47;;;;;;;11.48;100.00;98492.59;2588334;28;20449;-87
2023/05/14 04:46:15;;;;;;;11.55;7.38;;;;;;;11.59;100.00;98492.25;2602667;28;20057;-86
2023/05/14 04:47:31;;;;;;;9.52;6.32;;;;;;;11.23;100.00;98484.63;2598330;28;20348;-88
2023/05/14 04:48:47;;;;;;;9.27;6.72;;;;;;;11.19;100.00;98480.38;2592169;28;20540;-87
2023/05/14 04:50:03;;;;;;;10.68;6.80;;;;;;;11.49;100.00;98485.59;2594407;28;20045;-86
2023/05/14 04:51:18;;;;;;;10.82;7.07;;;;;;;11.54;100.00;98487.19;2604014;28;20049;-87
2023/05/14 04:52:34;;;;;;;10.90;7.35;;;;;;;11.27;100.00;98481.88;2592218;28;20498;-87
2023/05/14 04:53:50;;;;;;;9.27;6.97;;;;;;;11.18;100.00;98483.91;2593168;28;20164;-87
2023/05/14 04:55:06;;;;;;;10.52;6.85;;;;;;;11.44;100.00;98480.50;2592454;28;20045;-87
2023/05/14 04:56:21;;;;;;;8.68;6.30;;;;;;;11.46;100.00;98483.06;2593411;28;20048;-87
2023/05/14 04:57:37;;;;;;;10.60;7.22;;;;;;;11.44;100.00;98483.13;2592938;28;20042;-87
2023/05/14 04:58:52;;;;;;;9.25;6.68;;;;;;;11.44;100.00;98483.94;2592558;28;20100;-87
2023/05/14 05:00:09;;;;;;;11.73;7.63;;;;;;;11.64;100.00;98482.50;2593264;28;20955;-87
2023/05/14 05:01:24;;;;;;;9.32;6.70;;;;;;;11.80;100.00;98482.84;2594207;28;20417;-87
2023/05/14 05:02:40;;;;;;;10.45;6.32;;;;;;;11.79;100.00;98483.75;2592343;28;20413;-87
2023/05/14 05:03:56;;;;;;;10.18;6.60;;;;;;;11.92;100.00;98478.97;2592222;28;20064;-87
2023/05/14 05:05:12;;;;;;;9.63;6.38;;;;;;;11.89;100.00;98481.72;2594156;28;20147;-87
2023/05/14 05:06:27;;;;;;;9.88;6.65;;;;;;;11.86;100.00;98480.03;2593334;28;20413;-87
2023/05/14 05:07:43;;;;;;;9.82;6.65;;;;;;;12.08;100.00;98474.13;2592192;28;20080;-87
2023/05/14 05:08:58;;;;;;;9.55;6.90;;;;;;;11.98;100.00;98476.13;2592460;28;20049;-87
2023/05/14 05:10:14;;;;;;;10.40;6.30;;;;;;;12.02;100.00;98481.34;2592954;28;20046;-87
2023/05/14 05:11:30;;;;;;;9.70;6.90;;;;;;;11.72;100.00;98474.38;2592597;28;20053;-87
2023/05/14 05:12:45;;;;;;;11.45;7.65;;;;;;;11.85;100.00;98480.06;2593119;28;20587;-87
2023/05/14 05:14:01;;;;;;;12.10;6.78;;;;;;;12.09;100.00;98480.22;2592819;28;20738;-87
2023/05/14 05:15:16;;;;;;;10.23;6.70;;;;;;;12.08;100.00;98478.50;2592018;28;20045;-87
2023/05/14 05:16:32;;;;;;;9.43;6.68;;;;;;;12.15;100.00;98478.22;2593584;28;20103;-87
2023/05/14 05:17:47;;;;;;;11.98;6.85;;;;;;;12.19;100.00;98479.00;2591872;28;20084;-87
2023/05/14 05:19:03;;;;;;;10.27;7.20;;;;;;;12.15;100.00;98472.13;2593886;28;20068;-87
2023/05/14 05:20:19;;;;;;;12.23;7.50;;;;;;;12.25;100.00;98467.44;2592575;28;20056;-87
2023/05/14 05:21:35;;;;;;;11.85;8.10;;;;;;;12.32;100.00;98474.16;2590387;28;20223;-87
2023/05/14 05:22:50;;;;;;;12.02;7.50;;;;;;;12.39;100.00;98475.69;2593365;28;20091;-87
2023/05/14 05:24:07;;;;;;;13.07;8.35;;;;;;;12.35;100.00;98473.22;2592802;28;20233;-89
2023/05/14 05:25:22;;;;;;;12.85;8.68;;;;;;;12.42;100.00;98466.81;2592590;28;20045;-88
2023/05/14 05:26:38;;;;;;;14.63;7.70;;;;;;;12.47;100.00;98464.03;2591159;28;20399;-88
2023/05/14 05:27:53;;;;;;;13.73;8.18;;;;;;;12.68;100.00;98463.28;2592753;28;20049;-87
2023/05/14 05:29:09;;;;;;;11.25;7.85;;;;;;;12.71;100.00;98464.91;2592659;28;20053;-87
2023/05/14 05:30:25;;;;;;;15.40;9.23;;;;;;;12.67;100.00;98464.19;2592675;28;20458;-88
2023/05/14 05:31:40;;;;;;;15.18;8.50;;;;;;;12.55;100.00;98470.72;2593749;28;20041;-87
2023/05/14 05:32:56;;;;;;;10.65;7.30;;;;;;;12.46;100.00;98476.31;2592288;28;20515;-88
2023/05/14 05:34:12;;;;;;;13.18;7.18;;;;;;;12.47;100.00;98475.41;2592395;28;20089;-87
2023/05/14 05:35:27;;;;;;;10.13;6.95;;;;;;;12.65;100.00;98471.28;2592948;28;20052;-87
2023/05/14 05:36:43;;;;;;;11.98;7.20;;;;;;;13.01;100.00;98472.63;2591981;28;20124;-87
2023/05/14 05:37:58;;;;;;;11.43;6.95;;;;;;;13.04;100.00;98469.84;2592088;28;20050;-86
2023/05/14 05:39:14;;;;;;;11.90;7.53;;;;;;;13.12;100.00;98469.56;2591565;28;20057;-87
2023/05/14 05:40:29;;;;;;;14.13;7.22;;;;;;;13.25;100.00;98475.19;2593324;28;20048;-87
2023/05/14 05:41:45;;;;;;;9.65;7.18;;;;;;;13.38;100.00;98471.19;2590841;28;20053;-87
2023/05/14 05:43:01;;;;;;;12.65;7.25;;;;;;;13.41;100.00;98467.59;2593580;28;20056;-87
2023/05/14 05:44:16;;;;;;;10.68;7.30;;;;;;;13.33;100.00;98467.88;2591250;28;20049;-87
2023/05/14 05:45:32;;;;;;;13.20;8.25;;;;;;;13.38;100.00;98465.91;2591330;28;20049;-88
2023/05/14 05:46:47;;;;;;;12.18;8.18;;;;;;;13.56;100.00;98472.28;2593749;28;20273;-87
2023/05/14 05:48:03;;;;;;;12.18;7.93;;;;;;;13.62;100.00;98472.94;2591588;28;20049;-87
2023/05/14 05:49:19;;;;;;;15.00;8.43;;;;;;;13.60;100.00;98466.88;2592954;28;20069;-87
2023/05/14 05:50:34;;;;;;;12.32;7.68;;;;;;;13.56;100.00;98464.38;2592559;28;20057;-88
2023/05/14 05:51:50;;;;;;;13.75;8.93;;;;;;;13.62;100.00;98471.16;2593269;28;20042;-87
2023/05/14 05:53:05;;;;;;;12.60;8.18;;;;;;;13.82;100.00;98458.97;2593363;28;20056;-88
2023/05/14 05:54:23;;;;;;;14.77;8.35;;;;;;;13.92;100.00;98465.56;2592513;28;20041;-87
2023/05/14 05:55:39;;;;;;;11.80;7.35;;;;;;;13.97;100.00;98460.13;2592346;28;20053;-87